Time;durP1;ratioP1;P1;durP2;ratioP2;P2;SDS_P1;SDS_P2;PMS_P1;PMS_P2;Temp;Humidity;BMP_temperature;BMP_pressure;BME280_temperature;BME280_humidity;BME280_pressure;Samples;Min_cycle;Max_cycle;Signal;HPM_P1;HPM_P2
2021/03/29 00:04:32;;;;;;;;;;;7.50;73.80;;;6.29;53.54;97061.78;10296097;28;1817;-85
2021/03/29 00:09:34;;;;;;;;;;;7.40;73.80;;;6.33;53.47;97061.13;10285812;28;2292;-84
2021/03/29 00:14:36;;;;;;;;;;;7.50;74.10;;;6.30;53.63;97061.59;10291212;28;2237;-85
2021/03/29 00:19:38;;;;;;;;;;;7.40;73.90;;;6.24;54.06;97057.09;10293287;28;2300;-86
2021/03/29 00:24:40;;;;;;;;;;;7.40;74.30;;;6.13;54.26;97060.44;10292864;28;2229;-88
2021/03/29 00:29:41;;;;;;;;;;;7.30;74.70;;;5.97;54.81;97049.22;10289569;28;1887;-86
2021/03/29 00:34:43;;;;;;;;;;;7.20;75.10;;;5.85;55.78;97058.06;10293936;28;2284;-85
2021/03/29 00:39:45;;;;;;;;;;;7.40;76.10;;;5.75;56.36;97047.03;10269533;28;2335;-88
2021/03/29 00:44:47;;;;;;;;;;;6.90;76.50;;;5.59;57.41;97059.81;10268304;28;2374;-88
2021/03/29 00:49:49;;;;;;;;;;;7.40;77.60;;;5.48;58.33;97073.00;10266584;28;2003;-89
2021/03/29 00:54:51;;;;;;;;;;;7.40;78.40;;;5.31;58.91;97076.09;10266028;28;2506;-89
2021/03/29 00:59:53;;;;;;;;;;;6.60;78.80;;;5.19;59.35;97075.09;10265675;28;2129;-88
2021/03/29 01:04:55;;;;;;;;;;;6.60;79.30;;;5.08;59.84;97067.72;10254392;28;3210;-89
2021/03/29 01:09:57;;;;;;;;;;;6.30;79.90;;;5.04;60.86;97069.19;10261344;28;2652;-87
2021/03/29 01:14:59;;;;;;;;;;;6.90;80.90;;;4.96;61.35;97072.03;10274693;28;2448;-87
2021/03/29 01:20:04;;;;;;;;;;;6.40;80.90;;;4.87;60.94;97076.75;10275338;28;2412;-86
2021/03/29 01:25:06;;;;;;;;;;;6.90;81.50;;;4.82;60.87;97085.38;10258980;28;2673;-87
2021/03/29 01:30:08;;;;;;;;;;;6.00;81.10;;;4.73;61.56;97075.13;10272605;28;2911;-88
2021/03/29 01:35:10;;;;;;;;;;;6.20;81.90;;;4.72;62.14;97074.31;10274903;28;2804;-87
2021/03/29 01:40:12;;;;;;;;;;;6.20;82.60;;;4.69;61.65;97074.72;10280779;28;2954;-87
2021/03/29 01:45:14;;;;;;;;;;;6.60;83.00;;;4.76;62.04;97075.53;10271532;29;2425;-88
2021/03/29 01:50:16;;;;;;;;;;;6.60;83.60;;;4.78;60.92;97070.84;10273621;29;2148;-85
2021/03/29 01:55:17;;;;;;;;;;;6.00;82.30;;;4.77;60.26;97077.19;10267340;29;2574;-88
2021/03/29 02:00:19;;;;;;;;;;;6.00;81.70;;;4.70;61.16;97076.34;10268605;28;2037;-88
2021/03/29 02:05:21;;;;;;;;;;;6.10;82.20;;;4.72;60.66;97073.50;10271064;28;2281;-87
2021/03/29 02:10:23;;;;;;;;;;;5.80;81.80;;;4.73;60.33;97075.94;10273392;29;2494;-87
2021/03/29 02:15:24;;;;;;;;;;;5.90;81.90;;;4.69;61.11;97077.38;10284648;28;2446;-86
2021/03/29 02:20:26;;;;;;;;;;;5.80;81.90;;;4.67;61.20;97076.78;10279692;28;2385;-89
2021/03/29 02:25:28;;;;;;;;;;;5.80;82.40;;;4.58;61.27;97077.97;10261001;29;2421;-86
2021/03/29 02:30:30;;;;;;;;;;;5.80;82.40;;;4.54;61.42;97080.25;10267448;28;2539;-89
2021/03/29 02:35:32;;;;;;;;;;;5.70;82.70;;;4.54;62.05;97077.59;10271130;28;2570;-89
2021/03/29 02:40:34;;;;;;;;;;;5.70;82.90;;;4.70;61.08;97070.19;10278352;28;2598;-88
2021/03/29 02:45:35;;;;;;;;;;;6.50;83.40;;;4.57;61.88;97079.00;10267583;28;2622;-88
2021/03/29 02:50:38;;;;;;;;;;;5.60;82.90;;;4.50;62.08;97080.84;10272042;28;2962;-88
2021/03/29 02:55:40;;;;;;;;;;;6.30;83.40;;;4.48;62.07;97083.72;10265246;28;2436;-88
2021/03/29 03:00:42;;;;;;;;;;;5.60;83.20;;;4.38;62.11;97082.47;10262007;29;2398;-85
2021/03/29 03:05:44;;;;;;;;;;;5.50;83.40;;;4.27;62.81;97092.69;10267371;29;2652;-89
2021/03/29 03:10:46;;;;;;;;;;;5.40;83.70;;;4.25;63.22;97089.41;10265740;29;2537;-86
2021/03/29 03:15:48;;;;;;;;;;;6.40;84.90;;;4.15;63.66;97088.16;10263534;29;2398;-89
2021/03/29 03:20:49;;;;;;;;;;;5.60;84.60;;;4.12;64.06;97099.19;10286684;29;2676;-85
2021/03/29 03:25:51;;;;;;;;;;;6.00;85.40;;;4.10;63.91;97096.75;10295186;28;2243;-87
2021/03/29 03:30:53;;;;;;;;;;;5.80;85.20;;;4.20;62.28;97102.50;10296872;28;2778;-85
2021/03/29 03:35:55;;;;;;;;;;;5.60;84.70;;;4.17;62.41;97110.88;10301100;28;2110;-84
2021/03/29 03:40:57;;;;;;;;;;;5.70;84.40;;;4.17;62.18;97107.41;10305302;28;2435;-84
2021/03/29 03:45:59;;;;;;;;;;;5.30;83.90;;;4.15;62.05;97099.63;10297636;28;2260;-83
2021/03/29 03:51:03;;;;;;;;;;;5.30;84.00;;;4.23;61.32;97103.94;10298807;28;2268;-88
2021/03/29 03:56:05;;;;;;;;;;;5.30;83.70;;;4.21;61.87;97104.16;10296454;28;2312;-85
2021/03/29 04:01:07;;;;;;;;;;;5.30;83.70;;;4.21;61.83;97104.16;10316570;28;2512;-87
2021/03/29 04:06:09;;;;;;;;;;;5.70;84.10;;;4.22;61.91;97100.47;10295923;28;1910;-86
2021/03/29 04:11:16;;;;;;;;;;;5.20;83.90;;;4.26;61.05;97112.34;10285029;28;2116;-88
2021/03/29 04:16:18;;;;;;;;;;;5.40;83.80;;;4.37;61.39;97108.25;10296078;28;1729;-87
2021/03/29 04:21:19;;;;;;;;;;;5.30;83.60;;;4.48;60.99;97113.00;10303784;28;2387;-89
2021/03/29 04:26:21;;;;;;;;;;;5.70;83.50;;;4.59;59.75;97122.25;10285872;29;2222;-87
2021/03/29 04:31:23;;;;;;;;;;;5.50;82.90;;;4.50;59.94;97121.59;10286876;28;2429;-86
2021/03/29 04:36:25;;;;;;;;;;;5.50;82.50;;;4.48;60.07;97121.00;10300418;28;2358;-88
2021/03/29 04:41:27;;;;;;;;;;;5.60;82.50;;;4.42;59.69;97128.97;10285348;29;2347;-88
2021/03/29 04:46:29;;;;;;;;;;;5.40;82.00;;;4.42;59.68;97129.78;10286752;29;2263;-85
2021/03/29 04:51:31;;;;;;;;;;;5.40;82.10;;;4.46;59.72;97138.22;10287680;29;1902;-88
2021/03/29 04:56:33;;;;;;;;;;;6.30;82.40;;;4.40;59.58;97144.34;10279841;28;2377;-87
2021/03/29 05:01:35;;;;;;;;;;;5.40;81.70;;;4.36;59.56;97143.91;10284923;28;2247;-88
2021/03/29 05:06:37;;;;;;;;;;;5.60;81.70;;;4.30;59.67;97145.53;10279807;28;2328;-89
2021/03/29 05:11:46;;;;;;;;;;;5.70;82.10;;;4.36;59.14;97148.41;10285870;28;2284;-87
2021/03/29 05:16:48;;;;;;;;;;;5.50;81.70;;;4.45;59.08;97158.66;10278344;29;2216;-87
2021/03/29 05:21:50;;;;;;;;;;;5.40;81.50;;;4.50;59.04;97156.22;10280447;29;2264;-89
2021/03/29 05:26:54;;;;;;;;;;;5.50;81.50;;;4.60;58.38;97162.00;10274456;29;2385;-87
2021/03/29 05:31:56;;;;;;;;;;;5.50;81.00;;;4.82;56.87;97159.97;10272457;28;2419;-85
2021/03/29 05:36:57;;;;;;;;;;;5.70;80.50;;;5.01;56.74;97168.19;10257535;28;2260;-85
2021/03/29 05:41:59;;;;;;;;;;;5.90;80.00;;;5.15;55.85;97170.66;10265713;28;2434;-88
2021/03/29 05:47:03;;;;;;;;;;;6.10;79.30;;;5.41;55.35;97159.16;10259054;29;2355;-84
2021/03/29 05:52:05;;;;;;;;;;;6.20;78.80;;;5.77;53.87;97168.53;10264196;29;2267;-87
2021/03/29 05:57:07;;;;;;;;;;;6.50;77.70;;;5.94;53.25;97169.75;10265568;29;2250;-90
2021/03/29 06:02:09;;;;;;;;;;;6.80;76.90;;;6.27;51.60;97179.50;10269226;28;1981;-88
2021/03/29 06:07:11;;;;;;;;;;;6.90;75.80;;;6.47;50.83;97180.22;10284572;28;2312;-88
2021/03/29 06:12:13;;;;;;;;;;;7.20;74.90;;;6.72;49.90;97190.16;10262813;28;2346;-89
2021/03/29 06:17:15;;;;;;;;;;;7.50;74.20;;;7.02;49.13;97185.88;10266530;28;1729;-87
2021/03/29 06:22:17;;;;;;;;;;;7.70;73.50;;;7.18;48.74;97184.50;10266904;28;2472;-86
2021/03/29 06:27:19;;;;;;;;;;;8.60;72.90;;;7.44;47.23;97178.13;10266773;29;2220;-86
2021/03/29 06:32:22;;;;;;;;;;;8.20;71.80;;;7.75;47.35;97184.44;10271740;29;2473;-88
2021/03/29 06:37:29;;;;;;;;;;;9.40;71.80;;;8.04;45.69;97196.28;10274087;28;2381;-87
2021/03/29 06:42:36;;;;;;;;;;;9.30;70.70;;;8.34;44.82;97201.72;10292023;28;2272;-88
2021/03/29 06:47:40;;;;;;;;;;;9.60;69.60;;;8.68;43.12;97199.47;10307573;28;1968;-88
2021/03/29 06:52:46;;;;;;;;;;;9.70;67.80;;;9.04;42.32;97196.69;10298438;28;2402;-89
2021/03/29 06:57:48;;;;;;;;;;;9.70;66.80;;;9.36;40.87;97201.78;10274942;28;2316;-88
2021/03/29 07:02:59;;;;;;;;;;;9.90;65.80;;;9.47;40.66;97198.28;10272307;29;1971;-90
2021/03/29 07:08:03;;;;;;;;;;;10.40;64.70;;;9.83;40.01;97204.50;10281605;28;1963;-88
2021/03/29 07:13:06;;;;;;;;;;;10.40;63.80;;;10.15;38.92;97213.03;10282419;29;2370;-88
2021/03/29 07:18:13;;;;;;;;;;;10.60;63.00;;;10.37;38.35;97215.91;10274750;29;2573;-88
2021/03/29 07:23:15;;;;;;;;;;;10.90;62.40;;;10.47;37.98;97221.53;10267865;29;1919;-88
2021/03/29 07:28:20;;;;;;;;;;;11.10;61.80;;;10.48;38.16;97225.84;10259350;28;2656;-89
2021/03/29 07:33:23;;;;;;;;;;;11.20;61.30;;;10.85;37.59;97214.75;10272173;29;2097;-89
2021/03/29 07:38:25;;;;;;;;;;;11.50;60.90;;;10.99;37.44;97218.78;10285597;28;2220;-89
2021/03/29 07:43:32;;;;;;;;;;;11.70;60.40;;;11.20;36.28;97228.06;10272112;29;2335;-88
2021/03/29 07:48:34;;;;;;;;;;;11.90;59.50;;;11.58;35.88;97227.38;10270361;29;2355;-88
2021/03/29 07:53:40;;;;;;;;;;;12.10;59.10;;;11.58;35.93;97227.38;10273346;29;2425;-88
2021/03/29 07:58:42;;;;;;;;;;;12.40;58.70;;;11.85;35.88;97217.59;10271187;29;2340;-88
2021/03/29 08:03:44;;;;;;;;;;;12.50;58.80;;;11.96;35.42;97223.13;10255588;28;2256;-89
2021/03/29 08:08:51;;;;;;;;;;;12.80;58.10;;;12.04;36.02;97214.63;10255051;29;2383;-88
2021/03/29 08:13:53;;;;;;;;;;;12.90;57.80;;;12.27;34.98;97216.28;10264190;28;2351;-88
2021/03/29 08:18:57;;;;;;;;;;;13.10;57.50;;;12.55;34.83;97220.72;10284066;28;2612;-89
2021/03/29 08:23:59;;;;;;;;;;;13.40;57.20;;;12.80;35.07;97209.41;10288183;28;2379;-90
2021/03/29 08:29:05;;;;;;;;;;;13.60;57.00;;;12.93;33.98;97217.13;10285279;28;2414;-89
2021/03/29 08:34:10;;;;;;;;;;;13.80;56.40;;;13.23;34.06;97222.03;10392391;23;2283;-87
2021/03/29 08:39:15;;;;;;;;;;;13.90;56.40;;;13.24;33.69;97213.72;10306205;28;2295;-89
2021/03/29 08:44:17;;;;;;;;;;;14.20;55.50;;;13.51;33.49;97219.09;10323350;28;1914;-89
2021/03/29 08:49:19;;;;;;;;;;;14.30;55.30;;;13.77;32.28;97217.41;10317592;28;2258;-88
2021/03/29 08:54:22;;;;;;;;;;;14.50;54.70;;;13.74;31.87;97217.94;10306567;28;2331;-87
2021/03/29 08:59:23;;;;;;;;;;;14.60;54.00;;;14.11;31.79;97216.28;10315403;28;2357;-87
2021/03/29 09:04:26;;;;;;;;;;;14.80;54.00;;;14.17;31.46;97221.44;10326868;28;2104;-88
2021/03/29 09:09:28;;;;;;;;;;;15.00;53.30;;;14.36;31.08;97213.72;10304829;28;1891;-88
2021/03/29 09:14:30;;;;;;;;;;;15.20;53.10;;;14.42;30.67;97218.09;10288557;28;1972;-88
2021/03/29 09:19:33;;;;;;;;;;;15.30;52.50;;;14.77;30.85;97216.66;10304713;28;2432;-92
2021/03/29 09:24:51;;;;;;;;;;;15.50;52.60;;;14.82;30.44;97222.06;10297592;28;2499;-89
2021/03/29 09:35:45;;;;;;;;;;;15.90;51.50;;;15.19;29.55;97212.97;10308140;28;2350;-89
2021/03/29 09:51:37;;;;;;;;;;;16.00;50.90;;;15.61;28.74;97226.31;2844676;26;2168;-84
2021/03/29 09:56:43;;;;;;;;;;;16.30;50.30;;;16.28;27.49;97227.91;10271163;28;2098;-82
2021/03/29 10:02:04;;;;;;;;;;;16.70;49.70;;;16.69;27.13;97228.63;10267176;28;1974;-83
2021/03/29 10:07:20;;;;;;;;;;;17.30;49.10;;;16.45;27.49;97216.75;10259800;29;2196;-83
2021/03/29 10:12:35;;;;;;;;;;;17.30;48.30;;;16.57;27.52;97220.00;10260690;28;2363;-83
2021/03/29 10:17:45;;;;;;;;;;;17.40;48.60;;;16.51;27.26;97221.09;10280680;28;2241;-85
2021/03/29 10:22:50;;;;;;;;;;;17.50;48.30;;;16.37;27.33;97214.63;10269567;28;1992;-86
2021/03/29 10:27:58;;;;;;;;;;;17.40;47.90;;;16.17;28.14;97210.06;10275685;28;2326;-86
2021/03/29 10:33:06;;;;;;;;;;;17.30;48.20;;;16.19;27.49;97219.53;10272441;28;2319;-84
2021/03/29 10:38:13;;;;;;;;;;;17.30;47.80;;;16.14;27.69;97208.69;10278879;28;2445;-85
2021/03/29 10:43:16;;;;;;;;;;;17.10;47.80;;;16.17;27.50;97208.16;10270191;28;2078;-83
2021/03/29 10:48:20;;;;;;;;;;;17.20;47.70;;;16.15;24.74;97204.06;10261117;29;2300;-85
2021/03/29 10:53:23;;;;;;;;;;;17.10;45.30;;;16.27;25.41;97204.59;10261539;28;2392;-85
2021/03/29 11:03:59;;;;;;;;;;;17.40;46.20;;;16.58;25.88;97199.88;10264689;28;2358;-87
2021/03/29 11:09:25;;;;;;;;;;;17.60;45.80;;;16.65;25.94;97194.97;10272632;28;1966;-86
2021/03/29 11:20:10;;;;;;;;;;;17.50;46.50;;;16.57;26.79;97181.97;10257085;29;2300;-87
2021/03/29 11:31:02;;;;;;;;;;;17.60;46.80;;;16.92;26.78;97167.47;10250906;29;2391;-85
2021/03/29 11:48:51;;;;;;;;;;;17.90;43.20;;;17.25;22.68;97171.34;10269169;29;2370;-89
2021/03/29 11:54:01;;;;;;;;;;;18.10;42.20;;;17.11;23.46;97162.16;10212150;29;2337;-91
2021/03/29 12:04:36;;;;;;;;;;;18.20;42.20;;;17.34;23.39;97157.94;10637144;23;2144;-88
2021/03/29 12:09:44;;;;;;;;;;;18.30;43.00;;;17.49;23.02;97154.28;10248182;29;1918;-86
2021/03/29 12:14:47;;;;;;;;;;;18.40;42.90;;;17.50;22.59;97151.31;10246572;28;2360;-85
2021/03/29 12:19:49;;;;;;;;;;;18.40;42.10;;;17.52;23.46;97153.75;10252089;29;2299;-84
2021/03/29 12:24:50;;;;;;;;;;;18.50;42.40;;;17.60;23.08;97152.31;10396033;23;3538;-86
2021/03/29 12:29:53;;;;;;;;;;;18.60;42.10;;;17.57;23.39;97148.28;10258326;28;2382;-85
2021/03/29 12:34:56;;;;;;;;;;;18.50;42.70;;;17.63;23.95;97147.13;10273353;28;2387;-84
2021/03/29 12:40:01;;;;;;;;;;;18.60;43.20;;;17.83;23.28;97132.56;10263281;28;2414;-85
2021/03/29 12:45:05;;;;;;;;;;;18.70;43.00;;;17.95;23.09;97132.19;10279638;28;2367;-85
2021/03/29 12:50:07;;;;;;;;;;;18.80;42.30;;;17.89;23.58;97125.97;10255473;28;2335;-86
2021/03/29 12:55:09;;;;;;;;;;;18.80;42.60;;;17.95;23.71;97118.56;10264697;28;2228;-84
2021/03/29 13:00:12;;;;;;;;;;;18.80;42.60;;;18.08;23.34;97112.44;10269382;28;2385;-84
2021/03/29 13:05:17;;;;;;;;;;;19.00;42.70;;;18.14;22.14;97110.50;10261545;28;2330;-85
2021/03/29 13:15:38;;;;;;;;;;;19.10;41.90;;;18.17;22.87;97104.44;10259528;28;2389;-86
2021/03/29 13:20:40;;;;;;;;;;;19.10;42.00;;;18.18;22.83;97112.31;10256666;28;2354;-86
2021/03/29 13:25:42;;;;;;;;;;;19.20;41.60;;;18.06;21.87;97117.34;10269240;28;2303;-86
2021/03/29 13:30:44;;;;;;;;;;;19.10;40.60;;;18.01;21.86;97122.88;10271370;28;2347;-86
2021/03/29 13:35:46;;;;;;;;;;;19.00;40.80;;;17.88;21.35;97112.63;10268960;28;2266;-86
2021/03/29 13:40:53;;;;;;;;;;;18.90;40.00;;;17.88;21.34;97105.31;10268755;28;2374;-86
2021/03/29 13:45:55;;;;;;;;;;;18.80;39.90;;;18.11;20.73;97100.97;10274158;28;1702;-86
2021/03/29 13:50:57;;;;;;;;;;;18.90;39.70;;;18.13;21.82;97097.94;10276488;28;2384;-85
2021/03/29 13:55:59;;;;;;;;;;;19.00;40.10;;;17.61;22.29;97097.66;10279825;28;2070;-85
2021/03/29 14:01:03;;;;;;;;;;;18.60;40.30;;;17.99;23.59;97093.22;10281582;28;1916;-84
2021/03/29 14:06:05;;;;;;;;;;;18.60;42.50;;;17.86;22.44;97082.22;10292776;28;1832;-84
2021/03/29 14:11:07;;;;;;;;;;;18.70;40.90;;;18.13;21.40;97092.50;10289430;28;2451;-85
2021/03/29 14:16:09;;;;;;;;;;;18.90;40.00;;;18.40;23.04;97086.50;10282433;28;2263;-84
2021/03/29 14:21:11;;;;;;;;;;;19.10;41.10;;;18.32;20.70;97071.59;10275026;28;2414;-85
2021/03/29 14:26:13;;;;;;;;;;;19.20;39.00;;;18.01;19.99;97074.69;10294893;28;2299;-85
2021/03/29 14:31:15;;;;;;;;;;;19.00;37.80;;;18.12;19.96;97059.06;10297614;28;2354;-84
2021/03/29 14:36:28;;;;;;;;;;;19.00;37.90;;;18.06;19.17;97057.50;10278834;28;2248;-84
2021/03/29 14:41:45;;;;;;;;;;;19.00;37.20;;;18.36;19.01;97059.84;10271462;28;2315;-82
2021/03/29 14:46:47;;;;;;;;;;;19.20;37.60;;;18.33;19.29;97052.28;10268029;28;2403;-84
2021/03/29 15:30:42;;;;;;;;;;;19.20;38.40;;;18.27;20.24;97039.81;10433396;23;2055;-84
2021/03/29 15:35:45;;;;;;;;;;;19.20;38.20;;;18.18;20.48;97047.00;10265466;28;1661;-84
2021/03/29 15:40:47;;;;;;;;;;;19.10;38.20;;;18.15;20.45;97035.91;10269029;28;1524;-86
2021/03/29 15:45:49;;;;;;;;;;;19.00;38.30;;;18.07;20.40;97035.44;10262168;28;1543;-87
2021/03/29 15:50:56;;;;;;;;;;;19.00;38.30;;;18.00;20.09;97039.59;10270143;28;1970;-90
2021/03/29 15:55:59;;;;;;;;;;;18.90;38.00;;;18.01;19.96;97033.09;10312720;28;1584;-87
2021/03/29 16:01:09;;;;;;;;;;;18.90;38.10;;;17.84;20.62;97030.81;10283779;28;1562;-89
2021/03/29 16:06:43;;;;;;;;;;;18.80;38.20;;;17.92;19.94;97035.63;10280873;28;1707;-86
2021/03/29 16:11:46;;;;;;;;;;;18.70;37.70;;;17.82;20.27;97035.75;10274965;28;1968;-88
2021/03/29 16:16:48;;;;;;;;;;;18.80;37.90;;;17.76;20.04;97029.56;10293145;28;1667;-88
2021/03/29 16:21:53;;;;;;;;;;;18.70;37.70;;;17.64;20.28;97037.25;10305606;28;1583;-86
2021/03/29 16:26:58;;;;;;;;;;;18.60;37.90;;;17.50;20.82;97030.91;10326708;28;1385;-86
2021/03/29 16:32:00;;;;;;;;;;;18.40;38.20;;;17.35;21.03;97048.13;10280919;28;1977;-88
2021/03/29 16:37:05;;;;;;;;;;;18.30;38.50;;;17.26;21.65;97044.44;10258421;29;1223;-87
2021/03/29 16:42:07;;;;;;;;;;;18.20;38.90;;;17.19;22.06;97058.34;10247499;29;1570;-87
2021/03/29 16:47:10;;;;;;;;;;;18.20;39.40;;;17.17;21.74;97046.13;10248873;29;1889;-88
2021/03/29 16:52:12;;;;;;;;;;;18.10;39.40;;;17.02;22.37;97047.06;10269513;28;1996;-88
2021/03/29 18:33:41;;;;;;;;;;;14.80;47.30;;;13.25;31.60;97101.91;2611601;23;3140;-87
2021/03/29 18:38:43;;;;;;;;;;;14.60;48.20;;;13.01;31.77;97111.38;10240977;29;2411;-85
2021/03/29 18:43:45;;;;;;;;;;;14.30;48.50;;;12.95;32.37;97115.94;10232503;29;2387;-86
2021/03/29 18:48:47;;;;;;;;;;;14.20;48.80;;;12.87;32.06;97115.59;10210533;29;2182;-84
2021/03/29 18:53:54;;;;;;;;;;;14.10;48.90;;;12.75;32.73;97129.22;10219603;29;2446;-86
2021/03/29 18:59:04;;;;;;;;;;;14.00;49.80;;;12.68;33.79;97139.41;10233433;29;2216;-83
2021/03/29 19:10:20;;;;;;;;;;;13.80;50.90;;;12.30;34.50;97143.81;10627417;27;764520;-86
2021/03/29 19:15:22;;;;;;;;;;;13.60;51.00;;;12.13;33.92;97148.44;10593512;28;2323;-86
2021/03/29 19:20:26;;;;;;;;;;;13.40;51.00;;;12.05;34.11;97156.97;10562486;28;2418;-87
2021/03/29 19:25:29;;;;;;;;;;;13.20;51.10;;;12.02;34.48;97152.06;10565966;28;2280;-86
2021/03/29 19:30:34;;;;;;;;;;;13.20;51.50;;;12.03;34.94;97148.31;10587912;28;1591;-86
2021/03/29 19:35:39;;;;;;;;;;;13.20;51.80;;;11.92;35.07;97155.44;10559741;28;1366;-84
2021/03/29 19:40:42;;;;;;;;;;;13.10;52.10;;;11.75;35.93;97155.44;10556541;28;1610;-84
2021/03/29 19:45:47;;;;;;;;;;;13.00;52.70;;;11.61;36.32;97156.84;10581771;28;1974;-86
2021/03/29 19:50:49;;;;;;;;;;;12.80;53.10;;;11.53;36.75;97160.78;10602222;28;1571;-86
2021/03/29 19:55:52;;;;;;;;;;;12.70;53.60;;;11.43;37.33;97163.28;10567023;28;1300;-87
2021/03/29 20:00:58;;;;;;;;;;;12.60;53.60;;;11.22;37.04;97164.84;10574742;28;1532;-87
2021/03/29 20:06:24;;;;;;;;;;;12.50;53.90;;;11.17;37.43;97167.44;10578967;28;1967;-87
2021/03/29 20:11:26;;;;;;;;;;;12.40;53.70;;;11.00;38.83;97169.28;10587847;28;1754;-87
2021/03/29 20:16:28;;;;;;;;;;;12.20;55.10;;;10.89;38.85;97180.94;10569850;28;1603;-87
2021/03/29 20:21:33;;;;;;;;;;;12.10;55.70;;;10.79;39.89;97187.75;10517267;28;1480;-87
2021/03/29 20:26:37;;;;;;;;;;;12.00;56.30;;;10.66;40.00;97188.03;10533266;28;1899;-86
2021/03/29 20:31:39;;;;;;;;;;;11.90;56.80;;;10.64;40.60;97182.09;10527160;28;1558;-87
2021/03/29 20:36:45;;;;;;;;;;;11.80;57.20;;;10.61;41.03;97177.16;10557134;28;1419;-87
2021/03/29 20:41:47;;;;;;;;;;;11.70;57.70;;;10.44;41.96;97173.63;10551718;28;1626;-86
2021/03/29 20:46:54;;;;;;;;;;;11.60;58.60;;;10.35;42.41;97175.03;10542471;28;1902;-86
2021/03/29 20:51:56;;;;;;;;;;;11.50;59.20;;;10.24;43.65;97180.22;10526808;28;1566;-87
2021/03/29 20:57:04;;;;;;;;;;;11.50;60.20;;;10.11;43.70;97175.03;10530676;28;1813;-88
2021/03/29 21:02:07;;;;;;;;;;;11.30;60.60;;;9.96;43.95;97183.59;10544446;28;1322;-87
2021/03/29 21:07:09;;;;;;;;;;;11.20;61.00;;;9.89;44.36;97179.41;10534102;28;1978;-86
2021/03/29 21:12:11;;;;;;;;;;;11.10;61.30;;;9.90;44.01;97183.72;10533102;28;1581;-86
2021/03/29 21:17:13;;;;;;;;;;;11.00;61.10;;;9.84;44.85;97176.59;10546812;28;1554;-86
2021/03/29 21:22:15;;;;;;;;;;;11.00;61.80;;;9.72;45.40;97176.59;10536956;28;1503;-87
2021/03/29 21:27:17;;;;;;;;;;;10.90;62.20;;;9.54;45.96;97177.53;10547894;28;1913;-87
2021/03/29 21:32:19;;;;;;;;;;;10.70;62.90;;;9.54;46.42;97180.19;10518673;28;1504;-84
2021/03/29 21:37:23;;;;;;;;;;;10.60;63.50;;;9.34;46.64;97179.72;10545039;28;1273;-85
2021/03/29 21:42:24;;;;;;;;;;;10.50;63.60;;;9.20;47.37;97179.94;10534786;28;1521;-85
2021/03/29 21:47:26;;;;;;;;;;;10.40;64.10;;;9.16;47.57;97188.66;10521830;28;1914;-85
2021/03/29 21:52:28;;;;;;;;;;;10.30;64.60;;;9.08;47.64;97192.50;10537416;28;2010;-85
2021/03/29 21:57:30;;;;;;;;;;;10.20;64.90;;;9.06;47.12;97183.06;10538770;28;2144;-85
2021/03/29 22:02:32;;;;;;;;;;;10.20;65.00;;;8.85;48.47;97195.13;10542565;28;1957;-84
2021/03/29 22:07:35;;;;;;;;;;;10.10;65.60;;;8.89;48.65;97188.25;10539033;28;2005;-86
2021/03/29 22:12:38;;;;;;;;;;;10.00;66.30;;;8.75;48.54;97186.81;10548914;28;1906;-89
2021/03/29 22:17:41;;;;;;;;;;;9.90;66.30;;;8.63;49.60;97178.69;10530507;28;1825;-87
2021/03/29 22:22:45;;;;;;;;;;;10.70;67.30;;;8.47;50.14;97182.84;10547382;28;2166;-87
2021/03/29 22:27:53;;;;;;;;;;;9.70;67.30;;;8.47;50.14;97185.53;10525133;28;1979;-88
2021/03/29 22:33:00;;;;;;;;;;;9.60;67.60;;;8.35;50.63;97185.47;10538300;28;2052;-87
2021/03/29 22:43:32;;;;;;;;;;;9.40;68.10;;;8.26;50.60;97172.53;10465171;28;2187;-86
2021/03/29 22:48:33;;;;;;;;;;;9.40;68.20;;;8.36;50.46;97167.50;10559603;28;2175;-86
2021/03/29 22:53:37;;;;;;;;;;;9.40;68.50;;;8.19;51.00;97171.81;10519226;28;2001;-86
2021/03/29 22:58:39;;;;;;;;;;;9.40;68.50;;;8.21;51.18;97173.25;10531337;28;1819;-86
2021/03/29 23:03:40;;;;;;;;;;;9.50;69.00;;;8.13;51.20;97179.69;10528361;28;1969;-85
2021/03/29 23:08:43;;;;;;;;;;;10.50;69.80;;;8.16;51.45;97183.81;10547418;28;2278;-88
2021/03/29 23:13:44;;;;;;;;;;;9.60;69.30;;;8.06;51.42;97186.97;10528157;28;2244;-86
2021/03/29 23:18:47;;;;;;;;;;;9.70;69.50;;;8.02;51.52;97171.59;10523935;28;1690;-86
2021/03/29 23:23:49;;;;;;;;;;;9.10;69.40;;;8.02;51.38;97176.97;10540975;28;1646;-86
2021/03/29 23:28:51;;;;;;;;;;;9.50;70.20;;;7.85;51.90;97176.72;10526677;28;1981;-86
2021/03/29 23:33:53;;;;;;;;;;;9.00;70.00;;;7.76;51.98;97178.88;10542272;28;1845;-87
2021/03/29 23:38:55;;;;;;;;;;;8.90;70.30;;;7.71;52.99;97177.91;10534262;28;2000;-87
2021/03/29 23:43:57;;;;;;;;;;;8.80;70.50;;;7.71;52.73;97169.88;10528712;28;1830;-86
2021/03/29 23:48:59;;;;;;;;;;;9.70;71.20;;;7.63;52.99;97170.94;10574651;28;1932;-87
2021/03/29 23:54:05;;;;;;;;;;;8.80;70.90;;;7.55;53.33;97174.72;10546369;28;1897;-85
2021/03/29 23:59:07;;;;;;;;;;;8.70;71.30;;;7.50;52.62;97169.22;10542511;28;1737;-86
